• Join FlightAware (Why Join?)
  • Login
  • US Flag 
10:25PM EST


 

Airport Tracker/Info


-or-


 

Live Flight TrackerFlight Track Log ✈ GEC8170 ✈ 20-May-2013 ✈ EDDF / FRA - KATL

Flight Track Log - Related Links

Times and Time Zones

All times are in EDT time to prevent confusion due to time zone crossing. See the GEC8170 flight status page for this flight to view local times or setup timezone preferences in your user account.

Time Position Orientation Groundspeed Altitude Reporting Facility
EDT Latitude Longitude Course Direction KTS MPH feet Rate Location/Type
02:41AM 49.9770 8.5270 180° South 1,800  Level FlightAware
02:41AM 49.9290 8.5270 180° South 224 258 3,300 2,160 Climbing FlightAware
02:42AM 49.8960 8.5320 174° South 229 264 4,500 1,620 Climbing FlightAware
02:43AM 49.8540 8.5250 186° South 252 290 5,200 1,500 Climbing FlightAware
02:43AM 49.8160 8.5040 200° South 279 321 6,300 2,220 Climbing FlightAware
02:43AM 49.7990 8.4940 201° Southwest 278 320 6,900 2,520 Climbing FlightAware
02:44AM 49.7680 8.4550 219° Southwest 289 333 8,200 2,700 Climbing FlightAware
02:44AM 49.7630 8.4360 248° West 289 333 8,700 2,460 Climbing FlightAware
02:45AM 49.7700 8.3420 277° West 311 358 10,500 1,860 Climbing FlightAware
02:45AM 49.7670 8.2690 266° West 334 384 11,200 1,680 Climbing FlightAware
02:46AM 49.7630 8.1550 267° West 358 412 12,800 2,160 Climbing FlightAware
02:47AM 49.7580 8.0380 266° West 370 426 14,500 2,160 Climbing FlightAware
02:47AM 49.7530 7.9280 266° West 381 438 15,900 1,920 Climbing FlightAware
02:48AM 49.7470 7.8030 266° West 400 460 17,300 1,800 Climbing FlightAware
02:49AM 49.7410 7.6870 265° West 417 480 18,500 1,560 Climbing FlightAware
02:50AM 49.7350 7.5730 265° West 434 499 19,400 1,740 Climbing FlightAware
02:50AM 49.7280 7.4290 266° West 442 509 21,000 1,680 Climbing FlightAware
02:51AM 49.7210 7.3030 265° West 459 528 21,800 1,020 Climbing FlightAware
02:52AM 49.7130 7.1520 265° West 482 555 22,500 960 Climbing FlightAware
02:52AM 49.7060 7.0120 266° West 500 575 23,200 960 Climbing FlightAware
02:53AM 49.6960 6.8540 264° West 520 598 23,900 900 Climbing FlightAware
02:54AM 49.6800 6.7020 261° West 539 620 24,500 1,260 Climbing FlightAware
02:54AM 49.6640 6.5470 261° West 541 623 25,600 1,860 Climbing FlightAware
02:55AM 49.6480 6.3930 261° West 537 618 27,000 1,620 Climbing FlightAware
02:56AM 49.6290 6.2190 260° West 534 615 27,900 1,020 Climbing FlightAware
02:57AM 49.6130 6.0680 261° West 529 609 28,500 720 Climbing FlightAware
02:57AM 49.5960 5.9070 261° West 527 606 29,000 300 Climbing FlightAware
02:58AM 49.5790 5.7580 260° West 527 606 29,000  Level FlightAware
02:59AM 49.5600 5.5870 260° West 525 604 29,000  Level FlightAware
02:59AM 49.5440 5.4480 260° West 520 598 29,000  Level FlightAware
03:00AM 49.5260 5.2900 260° West 525 604 29,000  Level FlightAware
03:01AM 49.5070 5.1280 260° West 528 608 29,000  Level FlightAware
03:01AM 49.4880 4.9690 260° West 531 611 29,000  Level FlightAware
03:02AM 49.4740 4.8450 260° West 532 612 29,000  Level FlightAware
03:03AM 49.4510 4.6570 259° West 532 612 29,000  Level FlightAware
03:04AM 49.4330 4.5110 259° West 532 612 29,000  Level FlightAware
03:04AM 49.4206 4.4091 259° West 531 611 29,000  Level FlightAware ADS-B
03:05AM 49.4043 4.2771 259° West 529 609 29,000  Level FlightAware ADS-B
03:05AM 49.3901 4.1648 259° West 527 606 29,000  Level FlightAware ADS-B
03:06AM 49.3737 4.0356 259° West 525 604 29,000  Level FlightAware ADS-B
03:06AM 49.3588 3.9247 258° West 523 602 29,000  Level FlightAware ADS-B
03:07AM 49.3447 3.8156 259° West 522 601 29,000 60 Level FlightAware ADS-B
03:08AM 49.3170 3.5990 259° West 520 598 29,100 420 Climbing FlightAware
03:08AM 49.2950 3.4330 259° West 521 600 29,800 900 Climbing FlightAware
03:09AM 49.2871 3.3773 258° West 523 602 30,000 180 Climbing FlightAware ADS-B
03:09AM 49.2690 3.2451 258° West 522 601 30,000  Level FlightAware ADS-B
03:10AM 49.2530 3.1330 258° West 521 600 30,000  Level FlightAware
03:10AM 49.2485 3.0975 259° West 521 600 30,000  Level FlightAware ADS-B
03:11AM 49.2329 2.9862 258° West 521 600 30,000  Level FlightAware ADS-B
03:11AM 49.2163 2.8672 258° West 519 597 30,000  Level FlightAware ADS-B
03:12AM 49.1985 2.7401 258° West 517 595 30,000  Level FlightAware ADS-B
03:12AM 49.1799 2.6093 258° West 516 594 30,000  Level FlightAware ADS-B
03:13AM 49.1635 2.4955 258° West 518 596 30,000  Level FlightAware ADS-B
03:13AM 49.1479 2.3871 258° West 518 596 30,000 -1,800 Level FlightAware ADS-B
03:14AM 49.1371 2.3134 258° West 488 562 28,500  Descending FlightAware UK
03:14AM 49.1318 2.2757 258° West 520 598 30,000 2,100 Climbing FlightAware ADS-B
03:14AM 49.1157 2.1650 258° West 519 597 30,000 -1,860 Level FlightAware ADS-B
03:15AM 49.1061 2.0989 258° West 488 562 28,500  Descending FlightAware UK
03:15AM 49.0999 2.0581 258° West 519 597 30,000 3,900 Climbing FlightAware ADS-B
03:15AM 49.0935 2.0191 256° West 520 598 30,000 -3,000 Level FlightAware ADS-B
03:15AM 49.0818 1.9508 256° West 488 562 28,500  Descending FlightAware UK
03:16AM 49.0717 1.9091 256° West 520 598 30,000  Climbing FlightAware ADS-B
03:16AM 49.0591 1.8460 256° West 486 559 28,500  Descending FlightAware UK
03:16AM 49.0505 1.8012 256° West 520 598 30,000  Climbing FlightAware ADS-B
03:16AM 49.0383 1.7411 256° West 486 559 28,500  Descending FlightAware UK
03:17AM 49.0280 1.6873 256° West 520 598 30,000  Climbing FlightAware ADS-B
03:17AM 49.0139 1.6167 256° West 486 559 28,500  Descending FlightAware UK
03:17AM 49.0057 1.5755 256° West 520 598 30,000  Climbing FlightAware ADS-B
03:17AM 48.9929 1.5110 256° West 486 559 28,500  Descending FlightAware UK
03:18AM 48.9840 1.4679 256° West 521 600 30,000 3,300 Climbing FlightAware ADS-B
03:18AM 48.9745 1.4189 254° West 519 597 30,000  Level FlightAware ADS-B
03:18AM 48.9693 1.3820 258° West 517 595 30,000  Level FlightAware ADS-B
03:18AM 48.9656 1.3377 263° West 513 590 30,000 -3,360 Level FlightAware ADS-B
03:19AM 48.9633 1.2785 263° West 486 559 28,400  Descending FlightAware UK
03:19AM 48.9594 1.2272 263° West 513 590 30,000 180 Climbing FlightAware ADS-B
03:19AM 48.9561 1.1708 263° West 486 559 28,500  Descending FlightAware UK
03:19AM 48.9509 1.0939 263° West 513 590 30,000  Climbing FlightAware ADS-B
03:20AM 48.9464 1.0215 263° West 486 559 28,500  Descending FlightAware UK
03:20AM 48.9433 0.9742 263° West 513 590 30,000  Climbing FlightAware ADS-B
03:20AM 48.9384 0.8933 263° West 486 559 28,500  Descending FlightAware UK
03:21AM 48.9359 0.8574 263° West 513 590 30,000  Climbing FlightAware ADS-B
03:21AM 48.9317 0.7852 263° West 486 559 28,500  Descending FlightAware UK
03:21AM 48.9285 0.7433 263° West 514 592 30,000  Climbing FlightAware ADS-B
03:21AM 48.9247 0.6774 263° West 486 559 28,500  Descending FlightAware UK
03:22AM 48.9204 0.6201 263° West 514 592 30,000 1,860 Climbing FlightAware ADS-B
03:22AM 48.9128 0.5076 264° West 514 592 30,000 -1,860 Level FlightAware ADS-B
03:22AM 48.9084 0.4418 264° West 486 559 28,500  Descending FlightAware UK
03:23AM 48.9049 0.3922 264° West 515 593 30,000  Climbing FlightAware ADS-B
03:23AM 48.9009 0.3342 264° West 486 559 28,500 -2,700 Descending FlightAware UK
03:23AM 48.8965 0.2702 264° West 486 559 28,500 3,420 Level FlightAware UK
03:23AM 48.8944 0.2437 264° West 515 593 30,000  Climbing FlightAware ADS-B
03:24AM 48.8902 0.1835 264° West 490 564 28,500  Descending FlightAware UK
03:24AM 48.8861 0.1275 264° West 515 593 30,000  Climbing FlightAware ADS-B
03:24AM 48.8796 0.0547 264° West 488 562 28,500  Descending FlightAware UK
03:24AM 48.8780 0.0165 264° West 515 593 30,000 1,860 Climbing FlightAware ADS-B
03:25AM 48.8685 -0.1117 264° West 514 592 30,000 -1,680 Level FlightAware ADS-B
03:25AM 48.8621 -0.1812 264° West 488 562 28,500  Descending FlightAware UK
03:26AM 48.8602 -0.2227 264° West 515 593 30,000  Climbing FlightAware ADS-B
03:26AM 48.8511 -0.3309 264° West 490 564 28,500  Descending FlightAware UK
03:26AM 48.8474 -0.3917 264° West 515 593 30,000  Climbing FlightAware ADS-B
03:27AM 48.8412 -0.4591 264° West 490 564 28,500  Descending FlightAware UK
03:27AM 48.8387 -0.5049 264° West 516 594 30,000  Climbing FlightAware ADS-B
03:27AM 48.8327 -0.5664 264° West 490 564 28,500 -2,700 Descending FlightAware UK
03:27AM 48.8277 -0.6308 263° West 490 564 28,500  Level FlightAware UK
03:28AM 48.8210 -0.7166 263° West 488 562 28,500 2,340 Level FlightAware UK
03:28AM 48.8190 -0.7570 263° West 514 592 30,000  Climbing FlightAware
03:28AM 48.8110 -0.8446 263° West 490 564 28,500 360 Descending FlightAware UK
03:29AM 48.8060 -0.9100 263° West 509 586 30,300 2,160 Climbing FlightAware
03:29AM 48.7940 -1.0540 263° West 510 587 30,800 -900 Climbing FlightAware
03:30AM 48.7878 -1.1211 263° West 488 562 29,500 -1,560 Descending FlightAware UK
03:30AM 48.7807 -1.2058 263° West 486 559 29,800 4,560 Climbing FlightAware UK
03:30AM 48.7820 -1.1990 263° West 509 586 31,400 660 Climbing FlightAware
03:30AM 48.7756 -1.2687 263° West 484 557 30,000 -1,920 Descending FlightAware UK
03:31AM 48.7702 -1.3320 263° West 484 557 30,300 4,020 Climbing FlightAware UK
03:31AM 48.7690 -1.3590 263° West 506 582 31,900 360 Climbing FlightAware
03:31AM 48.7611 -1.4373 263° West 482 555 30,500 -2,220 Descending FlightAware UK
03:32AM 48.7557 -1.5002 263° West 482 555 30,500 4,500 Level FlightAware UK
03:32AM 48.7570 -1.4950 263° West 504 580 32,000  Climbing FlightAware
03:32AM 48.7506 -1.5623 263° West 482 555 30,500 -2,280 Descending FlightAware UK
03:32AM 48.7432 -1.6467 263° West 480 552 30,500 3,060 Level FlightAware UK
03:32AM 48.7440 -1.6460 263° West 503 579 32,000  Climbing FlightAware
03:33AM 48.7343 -1.7505 263° West 482 555 30,500 -2,100 Descending FlightAware UK
03:33AM 48.7288 -1.8134 262° West 482 555 30,500 3,600 Level FlightAware UK
03:33AM 48.7290 -1.8170 262° West 504 580 32,000  Climbing FlightAware
03:33AM 48.7213 -1.8970 262° West 482 555 30,500 -2,580 Descending FlightAware UK
03:34AM 48.7166 -1.9597 264° West 482 555 30,500 3,180 Level FlightAware UK
03:34AM 48.7170 -1.9750 264° West 504 580 32,000  Climbing FlightAware
03:34AM 48.7100 -2.0640 264° West 482 555 30,500 -2,460 Descending FlightAware UK
03:34AM 48.7054 -2.1268 264° West 482 555 30,500 4,260 Level FlightAware UK
03:35AM 48.7060 -2.1230 264° West 505 581 32,000  Climbing FlightAware
03:35AM 48.6991 -2.2112 264° West 482 555 30,500  Descending FlightAware UK
03:35AM 48.6940 -2.2880 264° West 504 580 32,000  Climbing FlightAware
03:36AM 48.6877 -2.3574 264° West 484 557 30,500  Descending FlightAware UK
03:36AM 48.6830 -2.4280 264° West 501 577 32,000  Climbing FlightAware
03:36AM 48.6762 -2.5040 264° West 484 557 30,500 -2,400 Descending FlightAware UK
03:37AM 48.6712 -2.5665 263° West 482 555 30,500 3,600 Level FlightAware UK
03:37AM 48.6700 -2.5800 263° West 498 573 32,000  Climbing FlightAware
03:37AM 48.6645 -2.6487 263° West 480 552 30,500 -2,580 Descending FlightAware UK
03:37AM 48.6595 -2.7107 263° West 480 552 30,500 3,900 Level FlightAware UK
03:37AM 48.6590 -2.7180 263° West 498 573 32,000  Climbing FlightAware
03:38AM 48.6494 -2.8347 263° West 480 552 30,500  Descending FlightAware UK
03:38AM 48.6480 -2.8510 263° West 497 572 32,000  Climbing FlightAware
03:38AM 48.6425 -2.9174 263° West 480 552 30,500 -2,760 Descending FlightAware UK
03:39AM 48.6373 -2.9793 263° West 478 550 30,500 3,000 Level FlightAware UK
03:39AM 48.6350 -3.0130 263° West 497 572 32,000  Climbing FlightAware
03:39AM 48.6268 -3.1023 263° West 478 550 30,500  Descending FlightAware UK
03:39AM 48.6230 -3.1530 263° West 499 574 32,000 -180 Climbing FlightAware
03:40AM 48.6160 -3.2261 263° West 476 548 30,400 -2,580 Descending FlightAware UK
03:40AM 48.6108 -3.2877 263° West 480 552 30,400 3,840 Level FlightAware UK
03:40AM 48.6100 -3.3020 263° West 503 579 32,000  Climbing FlightAware
03:40AM 48.6035 -3.3710 263° West 482 555 30,400  Descending FlightAware UK
03:41AM 48.5980 -3.4420 263° West 507 583 32,000 120 Climbing FlightAware
03:41AM 48.5904 -3.5170 263° West 484 557 30,500 -2,340 Descending FlightAware UK
03:41AM 48.5847 -3.5807 262° West 486 559 30,600 4,320 Climbing FlightAware UK
03:42AM 48.5850 -3.5850 262° West 509 586 32,100 -300 Climbing FlightAware
03:42AM 48.5771 -3.6656 262° West 486 559 30,500 -2,580 Descending FlightAware UK
03:42AM 48.5715 -3.7293 262° West 484 557 30,500 3,840 Level FlightAware UK
03:42AM 48.5710 -3.7440 262° West 512 589 32,100  Climbing FlightAware
03:43AM 48.5640 -3.8143 262° West 486 559 30,500 -2,760 Descending FlightAware UK
03:43AM 48.5582 -3.8781 262° West 486 559 30,500 3,900 Level FlightAware UK
03:43AM 48.5580 -3.8860 262° West 514 592 32,000  Climbing FlightAware
03:43AM 48.5503 -3.9626 262° West 486 559 30,500 -2,460 Descending FlightAware UK
03:44AM 48.5442 -4.0264 262° West 486 559 30,500 3,420 Level FlightAware UK
03:44AM 48.5430 -4.0440 262° West 514 592 32,000  Climbing FlightAware
03:44AM 48.5361 -4.1115 262° West 486 559 30,500 -2,700 Descending FlightAware UK
03:44AM 48.5301 -4.1752 262° West 484 557 30,500 3,060 Level FlightAware UK
03:44AM 48.5280 -4.2060 262° West 510 587 32,000  Climbing FlightAware
03:45AM 48.5204 -4.2808 262° West 482 555 30,500  Descending FlightAware UK
03:45AM 48.5140 -4.3480 262° West 507 583 32,000 -180 Climbing FlightAware
03:45AM 48.5085 -4.4068 262° West 484 557 30,400 -2,940 Descending FlightAware UK
03:46AM 48.5024 -4.4694 262° West 484 557 30,400 3,840 Level FlightAware UK
03:46AM 48.5000 -4.4870 262° West 505 581 32,000  Climbing FlightAware
03:46AM 48.4942 -4.5520 262° West 482 555 30,400 -2,760 Descending FlightAware UK
03:46AM 48.4881 -4.6142 262° West 482 555 30,400 3,420 Level FlightAware UK
03:47AM 48.4860 -4.6370 262° West 503 579 32,000  Climbing FlightAware
03:47AM 48.4778 -4.7177 262° West 480 552 30,400  Descending FlightAware UK
03:47AM 48.4720 -4.7740 262° West 501 577 32,000  Climbing FlightAware
03:48AM 48.4635 -4.8616 262° West 478 550 30,400 -2,400 Descending FlightAware UK
03:48AM 48.4571 -4.9235 261° West 478 550 30,400 4,140 Level FlightAware UK
03:48AM 48.4560 -4.9340 261° West 502 578 32,000  Climbing FlightAware
03:48AM 48.4485 -5.0069 261° West 480 552 30,400 -2,640 Descending FlightAware UK
03:49AM 48.4421 -5.0684 261° West 480 552 30,400 4,560 Level FlightAware UK
03:49AM 48.4420 -5.0730 261° West 506 582 32,000  Climbing FlightAware
03:49AM 48.4354 -5.1306 261° West 482 555 30,400 -2,940 Descending FlightAware UK
03:49AM 48.4287 -5.1931 261° West 482 555 30,400 3,840 Level FlightAware UK
03:49AM 48.4270 -5.2110 261° West 508 585 32,000 240 Climbing FlightAware
03:50AM 48.4199 -5.2768 261° West 486 559 30,500 -2,580 Descending FlightAware UK
03:50AM 48.4135 -5.3398 261° West 490 564 30,500 3,420 Level FlightAware UK
03:50AM 48.4110 -5.3650 261° West 509 586 32,100  Climbing FlightAware
03:50AM 48.4024 -5.4448 261° West 488 562 30,500 -2,580 Descending FlightAware UK
03:51AM 48.3959 -5.5078 261° West 486 559 30,500 4,800 Level FlightAware UK
03:51AM 48.3970 -5.4980 261° West 508 585 32,100  Climbing FlightAware
03:51AM 48.3893 -5.5706 261° West 486 559 30,500 -2,880 Descending FlightAware UK
03:51AM 48.3826 -5.6331 261° West 484 557 30,500 3,720 Level FlightAware UK
03:51AM 48.3820 -5.6430 261° West 504 580 32,000  Climbing FlightAware
03:52AM 48.3737 -5.7163 261° West 484 557 30,500 -2,520 Descending FlightAware UK
03:52AM 48.3671 -5.7785 261° West 482 555 30,500 4,080 Level FlightAware UK
03:52AM 48.3660 -5.7820 261° West 503 579 32,000 -300 Climbing FlightAware
03:52AM 48.3568 -5.8594 261° West 482 555 30,400 -2,580 Descending FlightAware UK
03:53AM 48.3501 -5.9209 261° West 480 552 30,400 3,840 Level FlightAware UK
03:53AM 48.3500 -5.9360 261° West 502 578 32,000  Climbing FlightAware
03:53AM 48.3410 -6.0032 261° West 482 555 30,400 -2,760 Descending FlightAware UK
03:53AM 48.3341 -6.0650 261° West 480 552 30,400 3,420 Level FlightAware UK
03:54AM 48.3320 -6.0890 261° West 503 579 32,000  Climbing FlightAware
03:54AM 48.3226 -6.1682 261° West 480 552 30,400  Descending FlightAware UK
03:54AM 48.3170 -6.2290 261° West 504 580 32,000  Climbing FlightAware
03:54AM 48.3085 -6.2921 261° West 482 555 30,400 -2,880 Descending FlightAware UK
03:55AM 48.3014 -6.3542 260° West 480 552 30,400 3,960 Level FlightAware UK
03:55AM 48.3010 -6.3650 260° West 505 581 32,000  Climbing FlightAware
03:55AM 48.2919 -6.4369 260° West 482 555 30,400 -2,700 Descending FlightAware UK
03:55AM 48.2848 -6.4990 260° West 482 555 30,400 3,540 Level FlightAware UK
03:56AM 48.2830 -6.5250 260° West 506 582 32,000  Climbing FlightAware
03:56AM 48.2750 -6.5816 260° West 482 555 30,400 -2,760 Descending FlightAware UK
03:56AM 48.2678 -6.6434 260° West 482 555 30,500 3,840 Climbing FlightAware UK
03:56AM 48.2660 -6.6630 260° West 507 583 32,000  Climbing FlightAware
03:57AM 48.2579 -6.7259 260° West 484 557 30,500 -2,580 Descending FlightAware UK
03:57AM 48.2506 -6.7880 260° West 486 559 30,500 3,420 Level FlightAware UK
03:57AM 48.2480 -6.8150 260° West 505 581 32,100  Climbing FlightAware
03:57AM 48.2383 -6.8914 260° West 484 557 30,500 -2,640 Descending FlightAware UK
03:58AM 48.2310 -6.9528 260° West 482 555 30,500 4,800 Level FlightAware UK
03:58AM 48.2330 -6.9440 260° West 505 581 32,100  Climbing FlightAware
03:58AM 48.2235 -7.0147 260° West 480 552 30,500 -2,940 Descending FlightAware UK
03:58AM 48.2159 -7.0767 260° West 482 555 30,500 3,000 Level FlightAware UK
03:58AM 48.2140 -7.0980 260° West 506 582 32,000 -240 Climbing FlightAware
03:59AM 48.2033 -7.1801 260° West 482 555 30,400 -2,700 Descending FlightAware UK
03:59AM 48.1957 -7.2421 260° West 482 555 30,400 4,320 Level FlightAware UK
03:59AM 48.1970 -7.2400 260° West 507 583 32,000  Climbing FlightAware
03:59AM 48.1856 -7.3249 260° West 482 555 30,400 -2,580 Descending FlightAware UK
04:00AM 48.1779 -7.3870 259° West 482 555 30,400 4,800 Level FlightAware UK
04:00AM 48.1800 -7.3770 259° West 508 585 32,000  Climbing FlightAware
04:00AM 48.1702 -7.4491 259° West 482 555 30,400 -2,880 Descending FlightAware UK
04:00AM 48.1625 -7.5113 259° West 480 552 30,400 3,960 Level FlightAware UK
04:00AM 48.1630 -7.5140 259° West 508 585 32,000  Climbing FlightAware
04:01AM 48.1520 -7.5942 259° West 484 557 30,400  Descending FlightAware UK
04:01AM 48.1510 -7.6090 259° West 508 585 32,000  Climbing FlightAware
04:01AM 48.1441 -7.6564 259° West 484 557 30,400 -5,100 Descending FlightAware UK
04:01AM 48.1361 -7.7186 259° West 484 557 30,400  Level FlightAware UK
04:02AM 48.1282 -7.7806 259° West 484 557 30,400 2,640 Level FlightAware UK
04:02AM 48.1270 -7.7950 259° West 508 585 32,000 1,620 Climbing FlightAware
04:03AM 48.1120 -7.9120 259° West 508 585 32,000  Level FlightAware
04:03AM 48.0970 -8.0300 259° West 508 585 32,000  Level FlightAware
04:04AM 48.0810 -8.1470 258° West 508 585 32,000  Level FlightAware
04:05AM 48.0660 -8.2640 259° West 508 585 32,000  Level FlightAware
04:05AM 48.0510 -8.3820 259° West 508 585 32,000  Level FlightAware
04:08AM 48.1262 -8.7983 285° West  Level Estimated
04:09AM 48.1597 -8.9865 285° West  Level Estimated
04:10AM 48.1928 -9.1749 285° West  Level Estimated
04:11AM 48.2257 -9.3636 285° West  Level Estimated
04:12AM 48.2582 -9.5525 285° West  Level Estimated
04:13AM 48.2904 -9.7416 284° West  Level Estimated
04:14AM 48.3223 -9.9310 284° West  Level Estimated
04:15AM 48.3539 -10.1207 284° West  Level Estimated
04:16AM 48.3852 -10.3105 284° West  Level Estimated
04:17AM 48.4161 -10.5006 284° West  Level Estimated
04:18AM 48.4468 -10.6909 284° West  Level Estimated
04:19AM 48.4771 -10.8815 284° West  Level Estimated
04:20AM 48.5071 -11.0723 283° West  Level Estimated
04:21AM 48.5368 -11.2633 283° West  Level Estimated
04:22AM 48.5662 -11.4545 283° West  Level Estimated
04:23AM 48.5953 -11.6460 283° West  Level Estimated
04:24AM 48.6241 -11.8376 283° West  Level Estimated
04:25AM 48.6525 -12.0295 283° West  Level Estimated
04:26AM 48.6806 -12.2216 283° West  Level Estimated
04:27AM 48.7084 -12.4139 282° West  Level Estimated
04:28AM 48.7359 -12.6065 282° West  Level Estimated
04:29AM 48.7631 -12.7992 282° West  Level Estimated
04:30AM 48.7899 -12.9921 282° West  Level Estimated
04:31AM 48.8164 -13.1853 282° West  Level Estimated
04:32AM 48.8426 -13.3786 282° West  Level Estimated
04:33AM 48.8685 -13.5722 282° West  Level Estimated
04:34AM 48.8940 -13.7659 281° West  Level Estimated
04:35AM 48.9192 -13.9599 281° West  Level Estimated
04:36AM 48.9441 -14.1540 281° West  Level Estimated
04:37AM 48.9687 -14.3484 281° West  Level Estimated
04:38AM 48.9929 -14.5429 281° West  Level Estimated
04:39AM 49.0168 -14.7376 281° West  Level Estimated
04:40AM 49.0404 -14.9325 281° West  Level Estimated
04:41AM 49.0637 -15.1276 280° West  Level Estimated
04:42AM 49.0866 -15.3229 280° West  Level Estimated
04:43AM 49.1092 -15.5183 280° West  Level Estimated
04:44AM 49.1315 -15.7139 280° West  Level Estimated
04:45AM 49.1534 -15.9097 280° West  Level Estimated
04:46AM 49.1750 -16.1057 280° West  Level Estimated
04:47AM 49.1963 -16.3018 279° West  Level Estimated
04:48AM 49.2172 -16.4981 279° West  Level Estimated
04:49AM 49.2378 -16.6946 279° West  Level Estimated
04:50AM 49.2581 -16.8912 279° West  Level Estimated
04:51AM 49.2780 -17.0880 279° West  Level Estimated
04:52AM 49.2977 -17.2850 279° West  Level Estimated
04:53AM 49.3169 -17.4821 279° West  Level Estimated
04:54AM 49.3359 -17.6793 278° West  Level Estimated
04:55AM 49.3545 -17.8768 278° West  Level Estimated
04:56AM 49.3727 -18.0743 278° West  Level Estimated
04:57AM 49.3907 -18.2720 278° West  Level Estimated
04:58AM 49.4082 -18.4699 278° West  Level Estimated
04:59AM 49.4255 -18.6679 278° West  Level Estimated
05:00AM 49.4424 -18.8660 278° West  Level Estimated
05:01AM 49.4590 -19.0642 277° West  Level Estimated
05:02AM 49.4752 -19.2626 277° West  Level Estimated
05:03AM 49.4911 -19.4611 277° West  Level Estimated
05:03AM 46.0000 -20.0000 265° West 471 542 32,000  Level ETMS Enhanced Traffic Management System
05:04AM 49.5066 -19.6598 277° West  Level Estimated
05:05AM 49.5219 -19.8586 277° West  Level Estimated
05:06AM 49.5367 -20.0575 277° West  Level Estimated
05:07AM 49.5513 -20.2565 276° West  Level Estimated
05:08AM 49.5654 -20.4556 276° West  Level Estimated
05:09AM 45.9324 -21.1268 265° West 471 542 32,000  Level FlightAware Transoceanic
05:10AM 45.9201 -21.3143 265° West 471 542 32,000  Level FlightAware Transoceanic
05:11AM 45.9074 -21.5018 264° West 471 542 32,000  Level FlightAware Transoceanic
05:12AM 45.8944 -21.6891 264° West 471 542 32,000  Level FlightAware Transoceanic
05:13AM 45.8812 -21.8764 264° West 471 542 32,000  Level FlightAware Transoceanic
05:14AM 45.8676 -22.0636 264° West 471 542 32,000  Level FlightAware Transoceanic
05:15AM 45.8537 -22.2507 264° West 471 542 32,000  Level FlightAware Transoceanic
05:16AM 45.8396 -22.4377 264° West 471 542 32,000  Level FlightAware Transoceanic
05:17AM 45.8251 -22.6245 264° West 471 542 32,000  Level FlightAware Transoceanic
05:18AM 45.8103 -22.8113 263° West 471 542 32,000  Level FlightAware Transoceanic
05:19AM 45.7952 -22.9980 263° West 471 542 32,000  Level FlightAware Transoceanic
05:20AM 45.7798 -23.1846 263° West 471 542 32,000  Level FlightAware Transoceanic
05:21AM 45.7641 -23.3711 263° West 471 542 32,000  Level FlightAware Transoceanic
05:22AM 45.7481 -23.5575 263° West 471 542 32,000  Level FlightAware Transoceanic
05:23AM 45.7318 -23.7438 263° West 471 542 32,000  Level FlightAware Transoceanic
05:24AM 45.7152 -23.9299 263° West 471 542 32,000  Level FlightAware Transoceanic
05:25AM 45.6983 -24.1160 263° West 471 542 32,000  Level FlightAware Transoceanic
05:26AM 45.6810 -24.3019 262° West 471 542 32,000  Level FlightAware Transoceanic
05:27AM 45.6635 -24.4877 262° West 471 542 32,000  Level FlightAware Transoceanic
05:28AM 45.6457 -24.6735 262° West 471 542 32,000  Level FlightAware Transoceanic
05:29AM 45.6276 -24.8591 262° West 471 542 32,000  Level FlightAware Transoceanic
05:30AM 45.6092 -25.0445 262° West 471 542 32,000  Level FlightAware Transoceanic
05:31AM 45.5905 -25.2299 262° West 471 542 32,000  Level FlightAware Transoceanic
05:32AM 45.5715 -25.4151 262° West 471 542 32,000  Level FlightAware Transoceanic
05:33AM 45.5522 -25.6002 261° West 471 542 32,000  Level FlightAware Transoceanic
05:34AM 45.5325 -25.7851 261° West 471 542 32,000  Level FlightAware Transoceanic
05:35AM 45.5126 -25.9700 261° West 471 542 32,000  Level FlightAware Transoceanic
05:36AM 45.4924 -26.1547 261° West 471 542 32,000  Level FlightAware Transoceanic
05:37AM 45.4719 -26.3393 261° West 471 542 32,000  Level FlightAware Transoceanic
05:38AM 45.4511 -26.5237 261° West 471 542 32,000  Level FlightAware Transoceanic
05:39AM 45.4300 -26.7080 261° West 471 542 32,000  Level FlightAware Transoceanic
05:40AM 45.4086 -26.8921 261° West 471 542 32,000  Level FlightAware Transoceanic
05:41AM 45.3869 -27.0762 260° West 471 542 32,000  Level FlightAware Transoceanic
05:42AM 45.3649 -27.2600 260° West 471 542 32,000  Level FlightAware Transoceanic
05:43AM 45.3426 -27.4438 260° West 471 542 32,000  Level FlightAware Transoceanic
05:44AM 45.3201 -27.6273 260° West 471 542 32,000  Level FlightAware Transoceanic
05:45AM 45.2972 -27.8108 260° West 471 542 32,000  Level FlightAware Transoceanic
05:46AM 45.2740 -27.9941 260° West 471 542 32,000  Level FlightAware Transoceanic
05:47AM 45.2506 -28.1772 260° West 471 542 32,000  Level FlightAware Transoceanic
05:48AM 45.2268 -28.3602 259° West 471 542 32,000  Level FlightAware Transoceanic
05:49AM 45.2028 -28.5431 259° West 471 542 32,000  Level FlightAware Transoceanic
05:50AM 45.1785 -28.7257 259° West 471 542 32,000  Level FlightAware Transoceanic
05:51AM 45.1538 -28.9083 259° West 471 542 32,000  Level FlightAware Transoceanic
05:52AM 45.1289 -29.0906 259° West 471 542 32,000  Level FlightAware Transoceanic
05:53AM 45.1037 -29.2728 259° West 471 542 32,000  Level FlightAware Transoceanic
05:54AM 45.0782 -29.4549 259° West 471 542 32,000  Level FlightAware Transoceanic
05:55AM 45.0524 -29.6367 259° West 471 542 32,000  Level FlightAware Transoceanic
05:56AM 45.0264 -29.8185 258° West 471 542 32,000  Level FlightAware Transoceanic
05:57AM 45.0358 -30.0018 274° West  Level Estimated
05:58AM 45.0450 -30.1853 274° West  Level Estimated
05:59AM 45.0539 -30.3688 274° West  Level Estimated
06:00AM 45.0625 -30.5524 274° West  Level Estimated
06:01AM 45.0708 -30.7360 274° West  Level Estimated
06:02AM 45.0788 -30.9196 274° West  Level Estimated
06:03AM 45.0865 -31.1034 273° West  Level Estimated
06:04AM 45.0939 -31.2871 273° West  Level Estimated
06:05AM 45.1011 -31.4709 273° West  Level Estimated
06:06AM 45.1079 -31.6548 273° West  Level Estimated
06:07AM 45.1144 -31.8387 273° West  Level Estimated
06:08AM 45.1207 -32.0227 273° West  Level Estimated
06:09AM 45.1266 -32.2066 273° West  Level Estimated
06:10AM 45.1323 -32.3907 273° West  Level Estimated
06:11AM 45.1376 -32.5747 272° West  Level Estimated
06:12AM 45.1427 -32.7588 272° West  Level Estimated
06:13AM 45.1474 -32.9429 272° West  Level Estimated
06:14AM 45.1519 -33.1271 272° West  Level Estimated
06:15AM 45.1560 -33.3112 272° West  Level Estimated
06:16AM 45.1599 -33.4954 272° West  Level Estimated
06:17AM 45.1635 -33.6797 272° West  Level Estimated
06:18AM 45.1668 -33.8639 272° West  Level Estimated
06:19AM 45.1697 -34.0482 271° West  Level Estimated
06:20AM 45.1724 -34.2325 271° West  Level Estimated
06:21AM 45.1748 -34.4168 271° West  Level Estimated
06:22AM 45.1769 -34.6011 271° West  Level Estimated
06:23AM 45.1787 -34.7854 271° West  Level Estimated
06:24AM 45.1802 -34.9698 271° West  Level Estimated
06:25AM 45.1814 -35.1541 271° West  Level Estimated
06:26AM 45.1823 -35.3385 270° West  Level Estimated
06:27AM 45.1829 -35.5229 270° West  Level Estimated
06:28AM 45.1832 -35.7072 270° West  Level Estimated
06:29AM 45.1833 -35.8916 270° West  Level Estimated
06:30AM 45.1830 -36.0760 270° West  Level Estimated
06:31AM 45.1824 -36.2603 270° West  Level Estimated
06:32AM 45.1815 -36.4447 270° West  Level Estimated
06:33AM 45.1804 -36.6290 270° West  Level Estimated
06:34AM 45.1789 -36.8134 269° West  Level Estimated
06:35AM 45.1771 -36.9977 269° West  Level Estimated
06:36AM 45.1751 -37.1820 269° West  Level Estimated
06:37AM 45.1727 -37.3663 269° West  Level Estimated
06:38AM 45.1701 -37.5506 269° West  Level Estimated
06:39AM 45.1671 -37.7349 269° West  Level Estimated
06:40AM 45.1639 -37.9192 269° West  Level Estimated
06:41AM 45.1603 -38.1034 269° West  Level Estimated
06:42AM 45.1565 -38.2876 268° West  Level Estimated
06:43AM 45.1524 -38.4718 268° West  Level Estimated
06:44AM 45.1479 -38.6559 268° West  Level Estimated
06:45AM 45.1432 -38.8400 268° West  Level Estimated
06:46AM 45.1382 -39.0241 268° West  Level Estimated
06:47AM 45.1329 -39.2082 268° West  Level Estimated
06:48AM 45.1273 -39.3922 268° West  Level Estimated
06:49AM 45.1213 -39.5762 267° West  Level Estimated
06:50AM 45.1152 -39.7602 267° West  Level Estimated
06:51AM 45.1087 -39.9441 267° West  Level Estimated
06:51AM 44.0000 -40.0000 266° West 473 544 32,000  Level New York Oceanic (ODAPS)
06:52AM 45.1019 -40.1279 267° West  Level Estimated
06:53AM 45.0948 -40.3117 267° West  Level Estimated
06:54AM 45.0874 -40.4955 267° West  Level Estimated
06:55AM 45.0797 -40.6792 267° West  Level Estimated
06:56AM 45.0717 -40.8629 267° West  Level Estimated
06:57AM 45.0635 -41.0465 266° West  Level Estimated
06:58AM 43.9231 -41.2663 265° West 473 544 32,000  Level FlightAware Transoceanic
06:59AM 43.9110 -41.4469 265° West 473 544 32,000  Level FlightAware Transoceanic
06:59AM 43.9167 -41.3833 265° West 479 551 32,000  Level New York Oceanic (ODAPS)
07:00AM 43.8986 -41.6274 264° West 473 544 32,000  Level FlightAware Transoceanic
07:01AM 43.8859 -41.8079 264° West 473 544 32,000  Level FlightAware Transoceanic
07:02AM 43.8729 -41.9883 264° West 473 544 32,000  Level FlightAware Transoceanic
07:03AM 43.8596 -42.1686 264° West 473 544 32,000  Level FlightAware Transoceanic
07:04AM 43.8461 -42.3489 264° West 473 544 32,000  Level FlightAware Transoceanic
07:05AM 43.8378 -42.4735 264° West 479 551 32,000  Level FlightAware Transoceanic
07:06AM 43.8236 -42.6550 264° West 479 551 32,000  Level FlightAware Transoceanic
07:07AM 43.8092 -42.8363 264° West 479 551 32,000  Level FlightAware Transoceanic
07:08AM 43.7944 -43.0175 264° West 479 551 32,000  Level FlightAware Transoceanic
07:09AM 43.7794 -43.1987 263° West 479 551 32,000  Level FlightAware Transoceanic
07:10AM 43.7641 -43.3797 263° West 479 551 32,000  Level FlightAware Transoceanic
07:11AM 43.7485 -43.5607 263° West 479 551 32,000  Level FlightAware Transoceanic
07:12AM 43.7326 -43.7416 263° West 479 551 32,000  Level FlightAware Transoceanic
07:13AM 43.7165 -43.9223 263° West 479 551 32,000 1,860 Level FlightAware Transoceanic
07:13AM 43.7167 -43.9000 263° West 468 539 34,000  Climbing New York Oceanic (ODAPS)
07:14AM 43.7000 -44.1030 263° West 479 551 32,000 -1,080 Descending FlightAware Transoceanic
07:15AM 43.6833 -44.2836 263° West 479 551 32,000  Level FlightAware Transoceanic
07:16AM 43.6663 -44.4641 263° West 479 551 32,000  Level FlightAware Transoceanic
07:17AM 43.6490 -44.6444 262° West 479 551 32,000  Level FlightAware Transoceanic
07:18AM 43.6314 -44.8247 262° West 479 551 32,000 960 Level FlightAware Transoceanic
07:19AM 43.6139 -44.9865 262° West 468 539 34,000 960 Climbing FlightAware Transoceanic
07:20AM 43.5957 -45.1672 262° West 468 539 34,000  Level FlightAware Transoceanic
07:21AM 43.5773 -45.3478 262° West 468 539 34,000  Level FlightAware Transoceanic
07:22AM 43.5586 -45.5283 262° West 468 539 34,000  Level FlightAware Transoceanic
07:23AM 43.5397 -45.7087 262° West 468 539 34,000  Level FlightAware Transoceanic
07:24AM 43.5204 -45.8889 262° West 468 539 34,000  Level FlightAware Transoceanic
07:25AM 43.5009 -46.0691 261° West 468 539 34,000  Level FlightAware Transoceanic
07:26AM 43.4810 -46.2491 261° West 468 539 34,000  Level FlightAware Transoceanic
07:26AM 43.4667 -46.3500 261° West 469 540 34,000  Level New York Oceanic (ODAPS)
07:27AM 43.4609 -46.4290 261° West 468 539 34,000  Level FlightAware Transoceanic
07:28AM 43.4405 -46.6088 261° West 468 539 34,000  Level FlightAware Transoceanic
07:29AM 43.4198 -46.7885 261° West 468 539 34,000  Level FlightAware Transoceanic
07:30AM 43.3989 -46.9680 261° West 468 539 34,000  Level FlightAware Transoceanic
07:31AM 43.3776 -47.1474 261° West 468 539 34,000  Level FlightAware Transoceanic
07:32AM 43.3561 -47.3267 261° West 468 539 34,000  Level FlightAware Transoceanic
07:33AM 43.3389 -47.4508 261° West 469 540 34,000  Level FlightAware Transoceanic
07:34AM 43.3166 -47.6338 260° West 469 540 34,000  Level FlightAware Transoceanic
07:35AM 43.2939 -47.8167 260° West 469 540 34,000  Level FlightAware Transoceanic
07:36AM 43.2710 -47.9994 260° West 469 540 34,000  Level FlightAware Transoceanic
07:37AM 43.2478 -48.1820 260° West 469 540 34,000  Level FlightAware Transoceanic
07:38AM 43.2243 -48.3644 260° West 469 540 34,000  Level FlightAware Transoceanic
07:39AM 43.2006 -48.5468 260° West 469 540 34,000  Level FlightAware Transoceanic
07:40AM 43.1765 -48.7289 260° West 469 540 34,000  Level FlightAware Transoceanic
07:40AM 43.1833 -48.7333 259° West 468 539 34,000  Level New York Oceanic (ODAPS)
07:41AM 43.1522 -48.9110 260° West 469 540 34,000  Level FlightAware Transoceanic
07:42AM 43.1275 -49.0928 259° West 469 540 34,000  Level FlightAware Transoceanic
07:43AM 43.1026 -49.2746 259° West 469 540 34,000  Level FlightAware Transoceanic
07:44AM 43.0774 -49.4562 259° West 469 540 34,000  Level FlightAware Transoceanic
07:45AM 43.0519 -49.6376 259° West 469 540 34,000  Level FlightAware Transoceanic
07:46AM 43.0261 -49.8189 259° West 469 540 34,000  Level FlightAware Transoceanic
07:47AM 43.0270 -49.8195 258° West 468 539 34,000  Level FlightAware Transoceanic
07:48AM 43.0000 -50.0000 258° West 468 539 34,000  Level FlightAware Transoceanic
07:49AM 42.9744 -50.1688 258° West 468 539 34,000  Level FlightAware Transoceanic
07:49AM 43.0000 -50.0000 258° West 409 471 34,000  Level New York Oceanic (ODAPS)
07:50AM 42.9485 -50.3374 258° West 468 539 34,000  Level FlightAware Transoceanic
07:51AM 42.9224 -50.5058 258° West 468 539 34,000  Level FlightAware Transoceanic
07:52AM 42.8960 -50.6741 258° West 468 539 34,000  Level FlightAware Transoceanic
07:53AM 42.8694 -50.8423 258° West 468 539 34,000  Level FlightAware Transoceanic
07:54AM 42.8425 -51.0103 258° West 468 539 34,000  Level FlightAware Transoceanic
07:54AM 42.8167 -51.1167 258° West 411 473 34,000  Level New York Oceanic (ODAPS)
07:55AM 42.8154 -51.1782 258° West 468 539 34,000  Level FlightAware Transoceanic
07:56AM 42.8106 -51.2078 258° West 409 471 34,000  Level FlightAware Transoceanic
07:57AM 42.7860 -51.3583 257° West 409 471 34,000  Level FlightAware Transoceanic
07:58AM 42.7612 -51.5086 257° West 409 471 34,000  Level FlightAware Transoceanic
07:59AM 42.7363 -51.6588 257° West 409 471 34,000  Level FlightAware Transoceanic
08:00AM 42.7111 -51.8089 257° West 409 471 34,000  Level FlightAware Transoceanic
08:01AM 42.6406 -52.1782 257° West 411 473 34,000  Level FlightAware Transoceanic
08:02AM 42.6146 -52.3294 257° West 411 473 34,000  Level FlightAware Transoceanic
08:03AM 42.5885 -52.4804 257° West 411 473 34,000  Level FlightAware Transoceanic
08:04AM 42.5621 -52.6314 257° West 411 473 34,000  Level FlightAware Transoceanic
08:05AM 42.5356 -52.7821 257° West 411 473 34,000  Level FlightAware Transoceanic
08:06AM 42.5088 -52.9328 256° West 411 473 34,000  Level FlightAware Transoceanic
08:07AM 42.4819 -53.0833 256° West 411 473 34,000  Level FlightAware Transoceanic
08:08AM 42.4547 -53.2337 256° West 411 473 34,000  Level FlightAware Transoceanic
08:08AM 42.4167 -53.5167 256° West 426 490 34,000  Level New York Oceanic (ODAPS)
08:09AM 42.4274 -53.3839 256° West 411 473 34,000  Level FlightAware Transoceanic
08:10AM 42.3998 -53.5341 256° West 411 473 34,000  Level FlightAware Transoceanic
08:11AM 42.3721 -53.6841 256° West 411 473 34,000  Level FlightAware Transoceanic
08:12AM 42.3442 -53.8339 256° West 411 473 34,000  Level FlightAware Transoceanic
08:13AM 42.3161 -53.9837 256° West 411 473 34,000  Level FlightAware Transoceanic
08:14AM 42.2411 -54.4381 255° West 426 490 34,000  Level FlightAware Transoceanic
08:15AM 42.2112 -54.5912 255° West 426 490 34,000  Level FlightAware Transoceanic
08:16AM 42.1810 -54.7441 255° West 426 490 34,000  Level FlightAware Transoceanic
08:17AM 42.1506 -54.8969 255° West 426 490 34,000  Level FlightAware Transoceanic
08:18AM 42.1200 -55.0496 255° West 426 490 34,000  Level FlightAware Transoceanic
08:19AM 42.0892 -55.2020 255° West 426 490 34,000  Level FlightAware Transoceanic
08:20AM 42.0582 -55.3544 255° West 426 490 34,000  Level FlightAware Transoceanic
08:21AM 42.0271 -55.5066 255° West 426 490 34,000  Level FlightAware Transoceanic
08:22AM 41.9957 -55.6586 254° West 426 490 34,000  Level FlightAware Transoceanic
08:22AM 41.9333 -55.9167 254° West 455 524 34,000  Level New York Oceanic (ODAPS)
08:23AM 41.9641 -55.8105 254° West 426 490 34,000  Level FlightAware Transoceanic
08:24AM 41.9323 -55.9622 254° West 426 490 34,000  Level FlightAware Transoceanic
08:25AM 41.9003 -56.1138 254° West 426 490 34,000  Level FlightAware Transoceanic
08:26AM 41.8681 -56.2653 254° West 426 490 34,000  Level FlightAware Transoceanic
08:27AM 41.8357 -56.4166 254° West 426 490 34,000  Level FlightAware Transoceanic
08:28AM 41.7308 -56.8693 254° West 455 524 34,000  Level FlightAware Transoceanic
08:29AM 41.6963 -57.0275 254° West 455 524 34,000  Level FlightAware Transoceanic
08:30AM 41.6616 -57.1855 254° West 455 524 34,000  Level FlightAware Transoceanic
08:31AM 41.6267 -57.3434 253° West 455 524 34,000  Level FlightAware Transoceanic
08:32AM 41.5915 -57.5010 253° West 455 524 34,000  Level FlightAware Transoceanic
08:33AM 41.5561 -57.6586 253° West 455 524 34,000  Level FlightAware Transoceanic
08:34AM 41.5205 -57.8159 253° West 455 524 34,000  Level FlightAware Transoceanic
08:35AM 41.4847 -57.9730 253° West 455 524 34,000  Level FlightAware Transoceanic
08:36AM 41.4487 -58.1300 253° West 455 524 34,000  Level FlightAware Transoceanic
08:36AM 41.4167 -58.2500 253° West 458 527 34,000  Level New York Oceanic (ODAPS)
08:37AM 41.4125 -58.2868 253° West 455 524 34,000  Level FlightAware Transoceanic
08:38AM 41.3760 -58.4435 253° West 455 524 34,000  Level FlightAware Transoceanic
08:39AM 41.3394 -58.5999 253° West 455 524 34,000  Level FlightAware Transoceanic
08:40AM 41.3025 -58.7562 253° West 455 524 34,000  Level FlightAware Transoceanic
08:41AM 41.2654 -58.9123 252° West 455 524 34,000  Level FlightAware Transoceanic
08:42AM 41.1927 -59.2073 252° West 458 527 34,000  Level FlightAware Transoceanic
08:43AM 41.1546 -59.3662 252° West 458 527 34,000  Level FlightAware Transoceanic
08:44AM 41.1163 -59.5249 252° West 458 527 34,000  Level FlightAware Transoceanic
08:45AM 41.0777 -59.6835 252° West 458 527 34,000  Level FlightAware Transoceanic
08:46AM 41.0390 -59.8418 252° West 458 527 34,000  Level FlightAware Transoceanic
08:47AM 41.0000 -60.0000 245° Southwest 458 527 34,000  Level FlightAware Transoceanic
08:47AM 41.0000 -60.0000 245° Southwest 476 548 34,000  Level New York Oceanic (ODAPS)
08:48AM 40.9436 -60.1573 245° Southwest 458 527 34,000  Level FlightAware Transoceanic
08:49AM 40.8871 -60.3143 244° Southwest 458 527 34,000  Level FlightAware Transoceanic
08:50AM 40.8302 -60.4711 244° Southwest 458 527 34,000  Level FlightAware Transoceanic
08:50AM 40.8333 -60.4500 244° Southwest 471 542 34,000  Level New York Oceanic (ODAPS)
08:51AM 40.7732 -60.6276 244° Southwest 458 527 34,000  Level FlightAware Transoceanic
08:52AM 40.7160 -60.7838 244° Southwest 458 527 34,000  Level FlightAware Transoceanic
08:53AM 40.6586 -60.9398 244° Southwest 476 548 34,000  Level FlightAware Transoceanic
08:54AM 40.6010 -61.0955 244° Southwest 476 548 34,000  Level FlightAware Transoceanic
08:55AM 40.5431 -61.2509 244° Southwest 476 548 34,000  Level FlightAware Transoceanic
08:56AM 40.4880 -61.3873 244° Southwest 471 542 34,000  Level FlightAware Transoceanic
08:57AM 40.4297 -61.5426 244° Southwest 471 542 34,000  Level FlightAware Transoceanic
08:58AM 40.3712 -61.6976 244° Southwest 471 542 34,000  Level FlightAware Transoceanic
08:59AM 40.3125 -61.8523 243° Southwest 471 542 34,000  Level FlightAware Transoceanic
09:00AM 40.2535 -62.0068 243° Southwest 471 542 34,000  Level FlightAware Transoceanic
09:01AM 40.1944 -62.1610 243° Southwest 471 542 34,000  Level FlightAware Transoceanic
09:02AM 40.1351 -62.3149 243° Southwest 471 542 34,000  Level FlightAware Transoceanic
09:03AM 40.0756 -62.4686 243° Southwest 471 542 34,000  Level FlightAware Transoceanic
09:03AM 40.0333 -62.5667 243° Southwest 471 542 34,000  Level New York Oceanic (ODAPS)
09:04AM 40.0158 -62.6220 243° Southwest 471 542 34,000  Level FlightAware Transoceanic
09:05AM 39.9559 -62.7751 243° Southwest 471 542 34,000  Level FlightAware Transoceanic
09:06AM 39.8958 -62.9280 243° Southwest 471 542 34,000  Level FlightAware Transoceanic
09:07AM 39.8354 -63.0806 243° Southwest 471 542 34,000  Level FlightAware Transoceanic
09:08AM 39.7749 -63.2329 243° Southwest 471 542 34,000  Level FlightAware Transoceanic
09:09AM 39.7142 -63.3849 243° Southwest 471 542 34,000  Level FlightAware Transoceanic
09:10AM 39.6687 -63.4896 242° Southwest 471 542 34,000  Level FlightAware Transoceanic
09:11AM 39.6072 -63.6424 242° Southwest 471 542 34,000  Level FlightAware Transoceanic
09:12AM 39.5455 -63.7950 242° Southwest 471 542 34,000  Level FlightAware Transoceanic
09:13AM 39.4836 -63.9473 242° Southwest 471 542 34,000  Level FlightAware Transoceanic
09:14AM 39.4215 -64.0994 242° Southwest 471 542 34,000  Level FlightAware Transoceanic
09:15AM 39.3593 -64.2512 242° Southwest 471 542 34,000  Level FlightAware Transoceanic
09:16AM 39.2968 -64.4027 242° Southwest 471 542 34,000  Level FlightAware Transoceanic
09:17AM 39.2341 -64.5539 242° Southwest 471 542 34,000  Level FlightAware Transoceanic
09:17AM 39.2000 -64.6667 242° Southwest 473 544 34,000  Level New York Oceanic (ODAPS)
09:18AM 39.1712 -64.7049 242° Southwest 471 542 34,000  Level FlightAware Transoceanic
09:19AM 39.1082 -64.8556 242° Southwest 471 542 34,000  Level FlightAware Transoceanic
09:20AM 39.0449 -65.0060 242° Southwest 471 542 34,000  Level FlightAware Transoceanic
09:21AM 38.9815 -65.1562 241° Southwest 471 542 34,000  Level FlightAware Transoceanic
09:22AM 38.9178 -65.3060 241° Southwest 471 542 34,000  Level FlightAware Transoceanic
09:23AM 38.8540 -65.4557 241° Southwest 471 542 34,000  Level FlightAware Transoceanic
09:24AM 38.8130 -65.5752 241° Southwest 473 544 34,000  Level FlightAware Transoceanic
09:25AM 38.7478 -65.7256 241° Southwest 473 544 34,000  Level FlightAware Transoceanic
09:26AM 38.6825 -65.8758 241° Southwest 473 544 34,000  Level FlightAware Transoceanic
09:27AM 38.6169 -66.0257 241° Southwest 473 544 34,000  Level FlightAware Transoceanic
09:28AM 38.5512 -66.1753 241° Southwest 473 544 34,000  Level FlightAware Transoceanic
09:29AM 38.4852 -66.3247 241° Southwest 473 544 34,000  Level FlightAware Transoceanic
09:30AM 38.4191 -66.4737 240° Southwest 473 544 34,000  Level FlightAware Transoceanic
09:31AM 38.3528 -66.6226 240° Southwest 473 544 34,000  Level FlightAware Transoceanic
09:31AM 38.3167 -66.7000 240° Southwest 470 541 34,000  Level New York Oceanic (ODAPS)
09:32AM 38.2863 -66.7711 240° Southwest 473 544 34,000  Level FlightAware Transoceanic
09:33AM 38.2196 -66.9194 240° Southwest 473 544 34,000  Level FlightAware Transoceanic
09:34AM 38.1527 -67.0674 240° Southwest 473 544 34,000  Level FlightAware Transoceanic
09:35AM 38.0856 -67.2151 240° Southwest 473 544 34,000  Level FlightAware Transoceanic
09:36AM 38.0184 -67.3625 240° Southwest 473 544 34,000  Level FlightAware Transoceanic
09:37AM 37.9280 -67.5576 240° Southwest 470 541 34,000  Level FlightAware Transoceanic
09:38AM 37.8626 -67.6996 240° Southwest 470 541 34,000  Level FlightAware Transoceanic
09:39AM 37.7971 -67.8414 240° Southwest 470 541 34,000  Level FlightAware Transoceanic
09:40AM 37.7314 -67.9829 240° Southwest 470 541 34,000  Level FlightAware Transoceanic
09:41AM 37.6655 -68.1242 239° Southwest 470 541 34,000  Level FlightAware Transoceanic
09:42AM 37.5994 -68.2652 239° Southwest 470 541 34,000  Level FlightAware Transoceanic
09:43AM 37.5332 -68.4060 239° Southwest 470 541 34,000  Level FlightAware Transoceanic
09:44AM 37.4668 -68.5466 239° Southwest 470 541 34,000  Level FlightAware Transoceanic
09:45AM 37.4003 -68.6869 239° Southwest 470 541 34,000  Level FlightAware Transoceanic
09:45AM 37.4000 -68.7000 238° Southwest 472 543 34,000  Level New York Oceanic (ODAPS)
09:46AM 37.3335 -68.8269 239° Southwest 470 541 34,000  Level FlightAware Transoceanic
09:47AM 37.2667 -68.9667 265° West 470 541 34,000  Level FlightAware Transoceanic
09:47AM 37.2667 -68.9667 265° West 469 540 34,000  Level New York Oceanic (ODAPS)
09:48AM 37.2546 -69.1282 265° West 470 541 34,000  Level FlightAware Transoceanic
09:49AM 37.2423 -69.2896 264° West 470 541 34,000  Level FlightAware Transoceanic
09:50AM 37.2297 -69.4510 264° West 470 541 34,000  Level FlightAware Transoceanic
09:51AM 37.2170 -69.6124 264° West 470 541 34,000  Level FlightAware Transoceanic
09:52AM 37.2040 -69.7737 264° West 472 543 34,000  Level FlightAware Transoceanic
09:53AM 37.1908 -69.9349 264° West 472 543 34,000  Level FlightAware Transoceanic
09:54AM 37.1774 -70.0961 264° West 469 540 34,000  Level FlightAware Transoceanic
09:55AM 37.1638 -70.2573 264° West 469 540 34,000  Level FlightAware Transoceanic
09:56AM 37.1499 -70.4183 264° West 469 540 34,000  Level FlightAware Transoceanic
09:57AM 37.1359 -70.5793 264° West 469 540 34,000  Level FlightAware Transoceanic
09:58AM 37.1216 -70.7403 264° West 469 540 34,000  Level FlightAware Transoceanic
09:59AM 37.1071 -70.9012 264° West 469 540 34,000  Level FlightAware Transoceanic
10:00AM 37.0924 -71.0620 263° West 469 540 34,000  Level FlightAware Transoceanic
10:01AM 37.0774 -71.2228 263° West 469 540 34,000  Level FlightAware Transoceanic
10:02AM 37.0623 -71.3835 263° West 469 540 34,000  Level FlightAware Transoceanic
10:02AM 37.0703 -71.3992 263° West 479 551 34,000  Level New York Center
10:03AM 37.0469 -71.5441 263° West 469 540 34,000 780 Level FlightAware Transoceanic
10:03AM 37.0589 -71.5631 265° West 479 551 34,800 1,320 Climbing New York Center
10:04AM 37.0492 -71.7242 266° West 479 551 35,700 300 Climbing New York Center
10:06AM 36.9986 -72.1383 261° West 468 539 36,000 60 Climbing Washington Center
10:07AM 36.9803 -72.2953 262° West 464 534 36,000  Level Washington Center
10:08AM 36.9678 -72.4594 265° West 471 542 36,000  Level Washington Center
10:09AM 36.9511 -72.6214 263° West 467 537 36,000  Level Washington Center
10:10AM 36.9469 -72.7853 268° West 477 549 36,000 -60 Level Washington Center
10:11AM 36.9442 -72.9464 269° West 467 537 35,900 -60 Descending Washington Center
10:12AM 36.9458 -73.1100 271° West 474 545 35,900  Level Washington Center
10:13AM 36.9450 -73.2764 270° West 474 545 36,000  Climbing Washington Center
10:20AM 36.9302 -74.3388 270° West 480 552 36,000  Level FlightAware ADS-B
10:20AM 36.9288 -74.4275 269° West 482 555 36,000  Level FlightAware ADS-B
10:21AM 36.9275 -74.5298 269° West 482 555 36,000 60 Level FlightAware ADS-B
10:21AM 36.9267 -74.6225 269° West 482 555 36,100 60 Climbing FlightAware ADS-B
10:22AM 36.9258 -74.7104 269° West 483 556 36,100 -120 Level FlightAware ADS-B
10:22AM 36.9246 -74.7979 269° West 484 557 36,000 -120 Descending FlightAware ADS-B
10:23AM 36.9235 -74.8855 269° West 484 557 36,000  Level FlightAware ADS-B
10:23AM 36.9223 -74.9714 269° West 484 557 36,000  Level FlightAware ADS-B
10:24AM 36.9207 -75.0669 269° West 484 557 36,000  Level FlightAware ADS-B
10:25AM 36.9189 -75.1579 269° West 485 558 36,000  Level FlightAware ADS-B
10:25AM 36.9172 -75.2458 269° West 486 559 36,000  Level FlightAware ADS-B
10:26AM 36.9140 -75.3415 268° West 486 559 36,000  Level FlightAware ADS-B
10:26AM 36.9110 -75.4480 268° West 486 559 36,000  Level FlightAware
10:27AM 36.9060 -75.5580 267° West 486 559 36,000  Level FlightAware
10:28AM 36.9060 -75.6860 270° West 487 560 36,000  Level FlightAware
10:29AM 36.9020 -75.8100 268° West 486 559 36,000  Level FlightAware
10:29AM 36.8999 -75.9162 269° West 481 554 36,000  Level FlightAware ADS-B
10:30AM 36.8749 -76.0299 255° West 480 552 36,000  Level FlightAware ADS-B
10:31AM 36.8159 -76.2005 247° West 479 551 36,000  Level FlightAware ADS-B
10:31AM 36.7865 -76.2843 246° West 479 551 36,000  Level FlightAware ADS-B
10:32AM 36.7620 -76.3880 254° West 480 552 36,000  Level FlightAware
10:33AM 36.7380 -76.5070 256° West 482 555 36,000 60 Level FlightAware
10:34AM 36.7160 -76.6160 256° West 482 555 36,100 60 Climbing FlightAware
10:34AM 36.6940 -76.7290 256° West 479 551 36,100 -120 Level FlightAware
10:35AM 36.6740 -76.8290 256° West 478 550 36,000 -120 Descending FlightAware
10:36AM 36.6450 -76.9330 251° West 474 545 36,000  Level FlightAware
10:36AM 36.6140 -77.0220 247° West 474 545 36,000  Level FlightAware
10:37AM 36.5750 -77.0850 232° Southwest 477 549 36,000  Level FlightAware
10:38AM 36.4940 -77.2010 229° Southwest 474 545 36,000  Level FlightAware
10:38AM 36.4580 -77.3100 248° West 474 545 36,000  Level FlightAware
10:39AM 36.4270 -77.4190 251° West 474 545 36,000  Level FlightAware
10:40AM 36.3990 -77.5170 250° West 473 544 36,000  Level FlightAware
10:40AM 36.3700 -77.6160 250° West 473 544 36,000  Level FlightAware
10:41AM 36.3350 -77.7410 251° West 473 544 36,000  Level FlightAware
10:42AM 36.3030 -77.8520 250° West 473 544 36,000  Level FlightAware
10:42AM 36.2770 -77.9390 250° West 473 544 36,000  Level FlightAware
10:43AM 36.2440 -78.0540 250° West 473 544 36,000  Level FlightAware
10:44AM 36.2130 -78.1590 250° West 473 544 36,000  Level FlightAware
10:45AM 36.1790 -78.2750 250° West 473 544 36,000  Level FlightAware
10:45AM 36.1490 -78.3780 250° West 472 543 36,000  Level FlightAware
10:46AM 36.1200 -78.4770 250° West 472 543 36,000  Level FlightAware
10:47AM 36.0870 -78.5870 250° West 470 541 36,000  Level FlightAware
10:47AM 36.0570 -78.6890 250° West 469 540 36,000  Level FlightAware
10:48AM 36.0240 -78.7960 249° West 470 541 36,000  Level FlightAware
10:49AM 35.9940 -78.8990 250° West 470 541 36,000  Level FlightAware
10:49AM 35.9600 -79.0100 249° West 469 540 36,000  Level FlightAware
10:50AM 35.9310 -79.1080 250° West 469 540 36,000  Level FlightAware
10:51AM 35.8990 -79.2120 249° West 469 540 36,000  Level FlightAware
10:52AM 35.8680 -79.3130 249° West 469 540 36,000  Level FlightAware
10:52AM 35.8330 -79.4290 250° West 468 539 36,000 -120 Level FlightAware
10:53AM 35.8010 -79.5310 249° West 469 540 35,900 -540 Descending FlightAware
10:54AM 35.7660 -79.6450 249° West 471 542 35,200 -600 Descending FlightAware
10:55AM 35.7290 -79.7650 249° West 475 547 35,000 -180 Descending FlightAware
10:55AM 35.7020 -79.8500 249° West 475 547 35,000  Level FlightAware
10:56AM 35.6760 -79.9360 250° West 475 547 35,000  Level FlightAware
10:57AM 35.6420 -80.0440 249° West 475 547 35,000  Level FlightAware
10:57AM 35.6150 -80.1290 249° West 475 547 35,000  Level FlightAware
10:58AM 35.5880 -80.2150 249° West 475 547 35,000  Level FlightAware
10:59AM 35.5620 -80.3010 250° West 475 547 35,000  Level FlightAware
10:59AM 35.5350 -80.3870 249° West 475 547 35,000  Level FlightAware
11:00AM 35.5080 -80.4720 249° West 475 547 35,000  Level FlightAware
11:01AM 35.4280 -80.7210 249° West 475 547 35,000  Level FlightAware
11:02AM 35.3940 -80.8280 249° West 475 547 35,000  Level FlightAware
11:02AM 35.3580 -80.9390 248° West 474 545 35,000 -240 Level FlightAware
11:03AM 35.3300 -81.0260 248° West 472 543 34,700 -720 Descending FlightAware
11:04AM 35.2980 -81.1250 248° West 476 548 34,100 -780 Descending FlightAware
11:04AM 35.2814 -81.1756 248° West 476 548 34,000 -180 Descending FlightAware ADS-B
11:04AM 35.2556 -81.2555 248° West 474 545 34,000  Level FlightAware ADS-B
11:05AM 35.2307 -81.3317 248° West 471 542 34,000  Level FlightAware ADS-B
11:06AM 35.1963 -81.4363 248° West 468 539 34,000  Level FlightAware ADS-B
11:06AM 35.1719 -81.5105 248° West 466 536 34,000  Level FlightAware ADS-B
11:07AM 35.1454 -81.5911 248° West 467 537 34,000  Level FlightAware ADS-B
11:07AM 35.1207 -81.6658 248° West 467 537 34,000  Level FlightAware ADS-B
11:08AM 35.0959 -81.7409 248° West 466 536 34,000  Level FlightAware ADS-B
11:08AM 35.0646 -81.8349 248° West 465 535 34,000  Level FlightAware ADS-B
11:09AM 35.0405 -81.9077 248° West 460 529 34,000  Level FlightAware ADS-B
11:09AM 35.0315 -81.9378 250° West 459 528 34,000  Level FlightAware ADS-B
11:09AM 35.0137 -82.0121 254° West 455 524 34,000  Level FlightAware ADS-B
11:10AM 34.9956 -82.0853 253° West 434 499 34,000  Level FlightAware ADS-B
11:11AM 34.9790 -82.1530 253° West 434 499 34,000  Level FlightAware
11:11AM 34.9650 -82.2118 254° West 436 502 34,000  Level FlightAware ADS-B
11:12AM 34.9310 -82.3540 254° West 436 502 34,000  Level FlightAware
11:13AM 34.9026 -82.4686 253° West 437 503 34,000 -240 Level FlightAware ADS-B
11:13AM 34.8848 -82.5418 254° West 439 505 33,700 -900 Descending FlightAware ADS-B
11:14AM 34.8667 -82.6152 253° West 443 510 33,100 -1,200 Descending FlightAware ADS-B
11:14AM 34.8488 -82.6881 253° West 448 516 32,500 -1,200 Descending FlightAware ADS-B
11:15AM 34.8307 -82.7618 253° West 453 521 31,900 -1,200 Descending FlightAware ADS-B
11:15AM 34.8126 -82.8351 253° West 441 507 31,300 -1,200 Descending FlightAware ADS-B
11:16AM 34.7921 -82.9155 253° West 431 496 30,600 -1,320 Descending FlightAware ADS-B
11:16AM 34.7720 -82.9955 253° West 414 476 29,800 -1,320 Descending FlightAware ADS-B
11:17AM 34.7549 -83.0640 253° West 410 472 29,200 -1,440 Descending FlightAware ADS-B
11:18AM 34.7349 -83.1447 253° West 407 468 28,200 -1,680 Descending FlightAware ADS-B
11:18AM 34.7173 -83.2144 253° West 397 457 27,300 -1,440 Descending FlightAware ADS-B
11:18AM 34.7054 -83.2527 249° West 390 449 27,000 -720 Descending FlightAware ADS-B
11:19AM 34.6914 -83.2830 241° Southwest 393 452 26,900 -840 Descending FlightAware ADS-B
11:19AM 34.6693 -83.3175 232° Southwest 394 453 26,500 -1,440 Descending FlightAware ADS-B
11:19AM 34.6421 -83.3468 222° Southwest 399 459 26,000 -1,680 Descending FlightAware ADS-B
11:20AM 34.5975 -83.3873 217° Southwest 397 457 25,100 -1,680 Descending FlightAware ADS-B
11:20AM 34.5475 -83.4328 217° Southwest 388 447 24,200 -1,920 Descending FlightAware ADS-B
11:21AM 34.5013 -83.4747 217° Southwest 390 449 23,000 -2,220 Descending FlightAware ADS-B
11:22AM 34.4525 -83.5186 217° Southwest 388 447 21,800 -2,160 Descending FlightAware ADS-B
11:22AM 34.4082 -83.5588 217° Southwest 388 447 20,700 -2,280 Descending FlightAware ADS-B
11:23AM 34.3598 -83.6022 217° Southwest 387 445 19,400 -2,100 Descending FlightAware ADS-B
11:23AM 34.2886 -83.6668 217° Southwest 386 444 17,800 -1,860 Descending FlightAware ADS-B
11:24AM 34.2180 -83.7300 217° Southwest 357 411 16,100 -1,800 Descending FlightAware
11:25AM 34.1660 -83.7730 214° Southwest 353 406 15,000 -1,680 Descending FlightAware
11:26AM 34.1110 -83.8230 217° Southwest 347 399 13,900 -900 Descending FlightAware
11:26AM 34.0560 -83.8770 219° Southwest 320 368 13,800 -300 Descending FlightAware
11:27AM 34.0110 -83.9260 222° Southwest 321 369 13,500 -1,020 Descending FlightAware
11:28AM 33.9640 -83.9760 221° Southwest 315 362 12,400 -1,200 Descending FlightAware
11:29AM 33.9200 -84.0230 222° Southwest 304 350 11,800 -480 Descending FlightAware
11:29AM 33.8720 -84.0740 221° Southwest 307 353 11,800  Level FlightAware
11:30AM 33.8260 -84.1160 217° Southwest 309 356 11,800  Level FlightAware
11:31AM 33.7750 -84.1500 209° Southwest 308 354 11,800  Level FlightAware
11:31AM 33.7340 -84.1790 210° Southwest 308 354 11,800  Level FlightAware
11:32AM 33.6770 -84.2180 210° Southwest 309 356 11,800  Level FlightAware
11:33AM 33.6260 -84.2530 210° Southwest 307 353 11,800  Level FlightAware
11:33AM 33.5760 -84.2870 210° Southwest 279 321 11,800  Level FlightAware
11:34AM 33.5580 -84.3020 215° Southwest 277 319 11,800  Level FlightAware
11:34AM 33.5490 -84.3200 239° Southwest 278 320 11,800 -600 Level FlightAware
11:34AM 33.5450 -84.3440 259° West 273 314 11,500 -1,320 Descending FlightAware
11:35AM 33.5450 -84.4150 270° West 266 306 10,400 -1,140 Descending FlightAware
11:36AM 33.5450 -84.4630 270° West 257 296 9,900 -1,320 Descending FlightAware
11:36AM 33.5460 -84.5040 272° West 249 287 9,100 -1,800 Descending FlightAware
11:36AM 33.5470 -84.5450 272° West 239 275 8,300 -1,440 Descending FlightAware
11:37AM 33.5470 -84.5650 270° West 237 273 7,900 -1,980 Descending FlightAware
11:38AM 33.5460 -84.6280 269° West 242 278 6,200 -2,040 Descending FlightAware
11:38AM 33.5460 -84.6690 270° West 235 270 5,400 -1,440 Descending FlightAware
11:39AM 33.5570 -84.7010 292° West 225 259 4,800 -1,080 Descending FlightAware
11:39AM 33.5740 -84.7070 344° North 218 251 4,600 -900 Descending FlightAware
11:39AM 33.5930 -84.6930 32° Northeast 202 232 4,200 -1,200 Descending FlightAware
11:40AM 33.6050 -84.6630 64° Northeast 195 224 3,500 -1,140 Descending FlightAware
11:40AM 33.6140 -84.6370 67° East 196 226 3,200 -660 Descending FlightAware
11:41AM 33.6250 -84.6070 66° East 196 226 2,900 -540 Descending FlightAware
11:41AM 33.6300 -84.5940 65° Northeast 195 224 2,800 -240 Descending FlightAware
11:41AM 33.6310 -84.5760 86° East 195 224 2,800 -240 Level FlightAware
11:41AM 33.6310 -84.5650 90° East 194 223 2,700 -780 Descending FlightAware
11:42AM 33.6320 -84.5350 88° East 167 192 2,300 -900 Descending FlightAware
11:42AM 33.6320 -84.5130 90° East 164 189 1,900 -900 Descending FlightAware
11:43AM 33.6320 -84.4880 90° East 164 189 1,500 -840 Descending FlightAware
11:43AM 33.6320 -84.4580 90° East 165 190 1,100 -840 Descending FlightAware